Portada
METAR-TAF:

METAR-TAF

Aeropuertos :

Aeropuerto Cherif Al Idrissi

Alhucemas, Marruecos

latitud: 35-11N, longitud: 003-51W, altitud: 27 m

Observación

El informe se hizo hace 24 minutos, a las 09:00 UTC
Viento 4 kt del suroeste
Temperatura 23°C
Humedad 36%
Presión 1015 hPa
Visibilidad 10 km o más
Escasas nubes a una altura de 2600 ft

METAR: GMTA 150900Z 22004KT 9999 FEW026 23/07 Q1015 NOSIG

Hora: 10:24 (09:24 UTC)

Pronóstico

El informe se hizo hace 4 horas y 24 minutos, a las 05:00 UTC
Pronóstico válido del 15 a las 06 UTC al 16 a las 12 UTC
Viento 7 kt del oeste
Visibilidad: 9000 m
Evolucionando progresivamente
del 16 a las 03 UTC al 16 a las 05 UTC
Nubes dispersas a una altura de 1300 ft
Cielo nuboso a una altura de 4000 ft

TAF: GMTA 150500Z 1506/1612 28007KT 9000 NSC BECMG 1603/1605 SCT013 BKN040

Observaciones y pronósticos meteorológicos de más de 4000 aeropuertos (mensajes METAR y TAF).

Los puntos amarillos y rojos representan las estaciones disponibles.

Ponga el ratón en el punto deseado para ver el nombre de la estación.

Haga clic para ver las observaciones y los pronósticos meteorológicos.

Para cambiar el mapa : haga clic en los botones verdes con una cruz de color negro para hacer un zoom, en el botón verde con un guión para alejar o en las flechas verdes para mapas adyacentes.


METAR-TAF: